Time;durP1;ratioP1;P1;durP2;ratioP2;P2;SDS_P1;SDS_P2;PMS_P1;PMS_P2;Temp;Humidity;BMP_temperature;BMP_pressure;BME280_temperature;BME280_humidity;BME280_pressure;Samples;Min_cycle;Max_cycle;Signal;HPM_P1;HPM_P2
2020/12/21 00:00:19;;;;;;;18.77;14.38;;;5.60;99.90;;;;;;5055428;28;20128;-71
2020/12/21 00:02:46;;;;;;;20.85;15.25;;;5.50;99.90;;;;;;5030781;28;20048;-71
2020/12/21 00:05:13;;;;;;;21.20;14.48;;;5.60;99.90;;;;;;5063219;28;20044;-72
2020/12/21 00:07:39;;;;;;;22.27;14.40;;;5.50;99.90;;;;;;5058591;28;20051;-72
2020/12/21 00:10:07;;;;;;;24.48;13.05;;;5.50;99.90;;;;;;5042706;28;20052;-72
2020/12/21 00:12:35;;;;;;;24.00;14.50;;;5.40;99.90;;;;;;5063924;28;20044;-72
2020/12/21 00:15:06;;;;;;;17.73;12.93;;;5.40;99.90;;;;;;5063644;28;20044;-72
2020/12/21 00:17:34;;;;;;;18.70;13.80;;;5.40;99.90;;;;;;5063325;28;20041;-73
2020/12/21 00:20:00;;;;;;;19.00;13.50;;;5.40;99.90;;;;;;5065178;28;20505;-72
2020/12/21 00:22:27;;;;;;;18.75;12.00;;;5.40;99.90;;;;;;5063574;28;20040;-72
2020/12/21 00:24:54;;;;;;;20.38;14.77;;;5.30;99.90;;;;;;5046828;28;20076;-72
2020/12/21 00:27:20;;;;;;;26.15;15.02;;;5.30;99.90;;;;;;5064402;28;20048;-73
2020/12/21 00:29:46;;;;;;;24.67;15.15;;;5.20;99.90;;;;;;5065284;28;20051;-72
2020/12/21 00:32:13;;;;;;;21.90;15.32;;;5.10;99.90;;;;;;5063435;28;20655;-72
2020/12/21 00:34:39;;;;;;;26.70;15.48;;;5.00;99.90;;;;;;5047173;28;20040;-72
2020/12/21 00:37:06;;;;;;;24.55;15.82;;;5.00;99.90;;;;;;5037774;28;20136;-72
2020/12/21 00:39:33;;;;;;;25.58;15.95;;;4.90;99.90;;;;;;5043777;28;20080;-72
2020/12/21 00:41:59;;;;;;;28.05;16.67;;;4.90;99.90;;;;;;5046441;28;20594;-72
2020/12/21 00:44:26;;;;;;;25.40;16.67;;;4.80;99.90;;;;;;5046945;28;20056;-72
2020/12/21 00:46:52;;;;;;;25.30;17.08;;;4.80;99.90;;;;;;5029394;28;20049;-71
2020/12/21 00:49:18;;;;;;;31.35;18.08;;;4.70;99.90;;;;;;5062603;28;20056;-72
2020/12/21 00:51:45;;;;;;;27.10;16.75;;;4.70;99.90;;;;;;5062044;28;20055;-72
2020/12/21 00:54:11;;;;;;;29.38;18.27;;;4.60;99.90;;;;;;5063053;28;20056;-72
2020/12/21 00:56:37;;;;;;;30.25;18.38;;;4.60;99.90;;;;;;5040677;28;20672;-72
2020/12/21 00:59:04;;;;;;;33.28;19.48;;;4.60;99.90;;;;;;5046938;28;20070;-71
2020/12/21 01:01:31;;;;;;;32.85;18.65;;;4.50;99.90;;;;;;5044857;28;20262;-71
2020/12/21 01:04:02;;;;;;;36.78;18.35;;;4.50;99.90;;;;;;5047193;28;20467;-72
2020/12/21 01:06:33;;;;;;;33.97;17.90;;;4.50;99.90;;;;;;5062085;28;20058;-71
2020/12/21 01:09:00;;;;;;;32.67;19.10;;;4.40;99.90;;;;;;5039077;28;20770;-72
2020/12/21 01:11:30;;;;;;;32.38;20.38;;;4.40;99.90;;;;;;5062487;28;20123;-72
2020/12/21 01:13:57;;;;;;;37.55;18.98;;;4.40;99.90;;;;;;5063874;28;20053;-71
2020/12/21 01:16:24;;;;;;;34.70;18.52;;;4.40;99.90;;;;;;5045486;28;20040;-72
2020/12/21 01:18:50;;;;;;;31.35;18.80;;;4.30;99.90;;;;;;5029793;28;20573;-72
2020/12/21 01:21:29;;;;;;;34.45;20.10;;;4.20;99.90;;;;;;5062180;28;20155;-71
2020/12/21 01:23:56;;;;;;;38.05;19.95;;;4.30;99.90;;;;;;5046511;28;20048;-71
2020/12/21 01:26:22;;;;;;;42.15;21.45;;;4.20;99.90;;;;;;5063254;28;20083;-72
2020/12/21 01:28:49;;;;;;;40.45;21.92;;;4.20;99.90;;;;;;5046265;28;20214;-71
2020/12/21 01:31:17;;;;;;;39.00;20.52;;;4.20;99.90;;;;;;5045979;28;20106;-71
2020/12/21 01:33:45;;;;;;;43.40;21.92;;;4.10;99.90;;;;;;5063583;28;20049;-71
2020/12/21 01:36:11;;;;;;;41.20;22.60;;;4.00;99.90;;;;;;5065711;28;20566;-72
2020/12/21 01:38:38;;;;;;;42.72;21.55;;;4.00;99.90;;;;;;5067137;28;20048;-72
2020/12/21 01:41:04;;;;;;;42.03;21.75;;;4.00;99.90;;;;;;5065757;28;20127;-72
2020/12/21 01:43:31;;;;;;;46.42;22.92;;;3.80;99.90;;;;;;5066999;28;20056;-72
2020/12/21 01:46:06;;;;;;;46.22;23.77;;;3.80;99.90;;;;;;5068015;28;20091;-72
2020/12/21 01:48:32;;;;;;;50.05;24.30;;;3.80;99.90;;;;;;5058167;28;20063;-72
2020/12/21 01:50:59;;;;;;;56.53;25.10;;;3.70;99.90;;;;;;5067525;28;20072;-72
2020/12/21 01:53:26;;;;;;;51.72;24.83;;;3.80;99.90;;;;;;5067602;28;20055;-72
2020/12/21 01:55:56;;;;;;;59.22;24.23;;;3.80;99.90;;;;;;5065398;28;20057;-72
2020/12/21 01:58:22;;;;;;;52.88;23.95;;;3.80;99.90;;;;;;5049669;28;20600;-72
2020/12/21 02:00:48;;;;;;;55.10;24.48;;;3.80;99.90;;;;;;5049290;28;20040;-72
2020/12/21 02:03:15;;;;;;;48.42;23.95;;;3.80;99.90;;;;;;5067326;28;20103;-72
2020/12/21 02:05:41;;;;;;;52.55;23.92;;;3.80;99.90;;;;;;5044924;28;20067;-72
2020/12/21 02:08:08;;;;;;;56.72;24.50;;;3.80;99.90;;;;;;5042055;28;20083;-72
2020/12/21 02:10:34;;;;;;;59.03;24.33;;;3.80;99.90;;;;;;5045446;28;20494;-72
2020/12/21 02:13:00;;;;;;;50.28;23.55;;;3.80;99.90;;;;;;5027526;28;20074;-72
2020/12/21 02:15:28;;;;;;;49.22;23.17;;;3.80;99.90;;;;;;5049224;28;20047;-72
2020/12/21 02:17:54;;;;;;;50.78;24.50;;;3.80;99.90;;;;;;5048927;28;20474;-72
2020/12/21 02:20:32;;;;;;;56.47;26.17;;;3.90;99.90;;;;;;5065126;28;20392;-72
2020/12/21 02:22:58;;;;;;;66.32;24.48;;;4.00;99.90;;;;;;5066387;28;20049;-72
2020/12/21 02:25:25;;;;;;;62.83;25.55;;;3.80;99.90;;;;;;5063965;28;20048;-72
2020/12/21 02:27:51;;;;;;;52.80;24.02;;;3.70;99.90;;;;;;5080054;28;20468;-72
2020/12/21 02:30:18;;;;;;;60.13;24.33;;;3.70;99.90;;;;;;5064654;28;20123;-72
2020/12/21 02:32:44;;;;;;;56.40;23.60;;;3.60;99.90;;;;;;5065374;28;20063;-72
2020/12/21 02:35:10;;;;;;;54.92;22.92;;;3.70;99.90;;;;;;5038829;28;20048;-72
2020/12/21 02:37:38;;;;;;;50.78;23.75;;;3.70;99.90;;;;;;5033954;28;20147;-72
2020/12/21 02:40:06;;;;;;;55.60;24.02;;;3.50;99.90;;;;;;5062709;28;20044;-72
2020/12/21 02:42:33;;;;;;;60.60;23.88;;;3.40;99.90;;;;;;5023351;28;20054;-72
2020/12/21 02:45:00;;;;;;;61.90;25.10;;;3.50;99.90;;;;;;5067398;28;20049;-72
2020/12/21 02:47:26;;;;;;;53.88;24.35;;;3.50;99.90;;;;;;5063548;28;20092;-72
2020/12/21 02:49:53;;;;;;;60.88;25.50;;;3.50;99.90;;;;;;5034295;28;20123;-73
2020/12/21 02:52:19;;;;;;;53.17;24.23;;;3.50;99.90;;;;;;5065200;28;20063;-72
2020/12/21 02:54:46;;;;;;;51.17;24.10;;;3.50;99.90;;;;;;5049168;28;20140;-72
2020/12/21 02:57:13;;;;;;;64.40;24.88;;;3.50;99.90;;;;;;5046813;28;20048;-73
2020/12/21 02:59:41;;;;;;;69.45;27.45;;;3.60;99.90;;;;;;5049468;28;20211;-72
2020/12/21 03:02:07;;;;;;;74.05;27.00;;;3.50;99.90;;;;;;5063517;28;20036;-73
2020/12/21 03:04:34;;;;;;;61.30;24.90;;;3.50;99.90;;;;;;5048400;28;20040;-72
2020/12/21 03:07:01;;;;;;;66.93;25.27;;;3.50;99.90;;;;;;5040132;28;20055;-73
2020/12/21 03:09:28;;;;;;;50.25;23.80;;;3.40;99.90;;;;;;5064878;28;20040;-73
2020/12/21 03:11:55;;;;;;;63.28;24.83;;;3.50;99.90;;;;;;5063505;28;20039;-73
2020/12/21 03:14:21;;;;;;;65.32;25.05;;;3.50;99.90;;;;;;5064338;28;20088;-73
2020/12/21 03:16:47;;;;;;;68.07;24.85;;;3.50;99.90;;;;;;5030993;28;20045;-71
2020/12/21 03:19:14;;;;;;;61.95;24.23;;;3.50;99.90;;;;;;5048135;28;20448;-73
2020/12/21 03:21:41;;;;;;;60.00;24.38;;;3.50;99.90;;;;;;5047456;28;20512;-72
2020/12/21 03:24:07;;;;;;;55.58;24.00;;;3.40;99.90;;;;;;5065035;28;20509;-71
2020/12/21 03:26:34;;;;;;;54.72;23.42;;;3.10;99.90;;;;;;5063292;28;20119;-72
2020/12/21 03:29:01;;;;;;;65.60;25.08;;;3.20;99.90;;;;;;5048066;28;20040;-72
2020/12/21 03:31:28;;;;;;;55.15;23.48;;;3.30;99.90;;;;;;5063707;28;20660;-72
2020/12/21 03:33:54;;;;;;;55.17;21.83;;;3.30;99.90;;;;;;5045830;28;20536;-72
2020/12/21 03:36:21;;;;;;;77.45;26.70;;;3.20;99.90;;;;;;5062195;28;20068;-72
2020/12/21 03:38:48;;;;;;;61.88;24.58;;;3.20;99.90;;;;;;5025207;28;20052;-72
2020/12/21 03:41:14;;;;;;;58.00;22.80;;;3.20;99.90;;;;;;5030988;28;20497;-72
2020/12/21 03:43:41;;;;;;;58.70;24.48;;;3.20;99.90;;;;;;5064986;28;20044;-72
2020/12/21 03:46:08;;;;;;;57.67;23.55;;;3.10;99.90;;;;;;5066036;28;20048;-72
2020/12/21 03:48:34;;;;;;;55.35;24.60;;;3.20;99.90;;;;;;5055812;28;20041;-72
2020/12/21 03:51:01;;;;;;;60.60;24.77;;;3.20;99.90;;;;;;5064051;28;20048;-72
2020/12/21 03:53:28;;;;;;;63.85;25.30;;;3.30;99.90;;;;;;5048202;28;20079;-72
2020/12/21 03:55:54;;;;;;;57.35;24.75;;;3.30;99.90;;;;;;5026410;28;20080;-72
2020/12/21 03:58:21;;;;;;;62.33;24.35;;;3.30;99.90;;;;;;5053436;28;20056;-72
2020/12/21 04:00:47;;;;;;;52.50;23.52;;;3.40;99.90;;;;;;5065562;28;20055;-72
2020/12/21 04:03:14;;;;;;;56.33;23.52;;;3.30;99.90;;;;;;5063031;28;20045;-72
2020/12/21 04:05:47;;;;;;;57.03;24.27;;;3.30;99.90;;;;;;5064594;28;20424;-72
2020/12/21 04:08:13;;;;;;;52.75;24.15;;;3.30;99.90;;;;;;5042873;28;20809;-72
2020/12/21 04:10:40;;;;;;;52.90;23.50;;;3.40;99.90;;;;;;5064762;28;20560;-72
2020/12/21 04:13:06;;;;;;;59.70;23.42;;;3.40;99.90;;;;;;5047185;28;20127;-71
2020/12/21 04:15:33;;;;;;;60.25;24.70;;;3.40;99.90;;;;;;5063428;28;20048;-71
2020/12/21 04:18:00;;;;;;;51.50;24.38;;;3.40;99.90;;;;;;5062031;28;20099;-72
2020/12/21 04:20:27;;;;;;;59.65;24.60;;;3.40;99.90;;;;;;5062815;28;20055;-71
2020/12/21 04:22:53;;;;;;;53.63;25.38;;;3.40;99.90;;;;;;5046934;28;20040;-72
2020/12/21 04:25:19;;;;;;;58.97;24.60;;;3.30;99.90;;;;;;5026374;28;20049;-72
2020/12/21 04:27:46;;;;;;;54.30;23.40;;;3.30;99.90;;;;;;5041872;28;20337;-72
2020/12/21 04:30:12;;;;;;;51.00;24.80;;;3.30;99.90;;;;;;5063302;28;20044;-72
2020/12/21 04:32:38;;;;;;;54.72;23.92;;;3.40;99.90;;;;;;5046751;28;20055;-72
2020/12/21 04:35:05;;;;;;;61.15;24.88;;;3.30;99.90;;;;;;5062580;28;20454;-72
2020/12/21 04:37:32;;;;;;;64.50;26.02;;;3.20;99.90;;;;;;5055221;28;20349;-72
2020/12/21 04:39:59;;;;;;;64.10;25.75;;;3.20;99.90;;;;;;5047453;28;20044;-72
2020/12/21 04:42:26;;;;;;;64.78;25.83;;;3.20;99.90;;;;;;5063079;28;20440;-72
2020/12/21 04:44:53;;;;;;;74.63;28.00;;;3.20;99.90;;;;;;5047281;28;20060;-72
2020/12/21 04:47:19;;;;;;;69.85;27.00;;;3.00;99.90;;;;;;5059488;28;20056;-72
2020/12/21 04:49:46;;;;;;;68.05;25.70;;;3.10;99.90;;;;;;5032821;28;20136;-72
2020/12/21 04:52:14;;;;;;;73.90;27.80;;;3.00;99.90;;;;;;5026540;28;20045;-72
2020/12/21 04:54:42;;;;;;;67.07;24.10;;;3.00;99.90;;;;;;5063716;28;20576;-72
2020/12/21 04:57:08;;;;;;;70.95;26.50;;;3.00;99.90;;;;;;5062298;28;20040;-72
2020/12/21 04:59:34;;;;;;;56.33;23.65;;;3.00;99.90;;;;;;5046866;28;20098;-72
2020/12/21 05:02:04;;;;;;;60.75;23.70;;;2.90;99.90;;;;;;5061778;28;20415;-72
2020/12/21 05:04:32;;;;;;;59.78;25.85;;;2.90;99.90;;;;;;5047011;28;20528;-72
2020/12/21 05:06:58;;;;;;;56.60;23.58;;;3.00;99.90;;;;;;5056046;28;20140;-72
2020/12/21 05:09:25;;;;;;;60.00;25.05;;;3.00;99.90;;;;;;5044146;28;20124;-72
2020/12/21 05:12:07;;;;;;;61.65;25.63;;;3.10;99.90;;;;;;5046034;28;20729;-73
2020/12/21 05:14:36;;;;;;;50.90;23.08;;;3.10;99.90;;;;;;5064877;28;20052;-72
2020/12/21 05:17:28;;;;;;;55.53;23.10;;;3.20;99.90;;;;;;5062492;28;20079;-72
2020/12/21 05:20:03;;;;;;;55.85;23.50;;;3.20;99.90;;;;;;5060115;28;20067;-72
2020/12/21 05:22:30;;;;;;;52.60;23.33;;;3.20;99.90;;;;;;5045774;28;20114;-72
2020/12/21 05:25:22;;;;;;;46.55;21.35;;;3.30;99.90;;;;;;5046852;28;20136;-72
2020/12/21 05:27:49;;;;;;;49.72;23.00;;;3.30;99.90;;;;;;5061858;28;20128;-72
2020/12/21 05:30:15;;;;;;;59.03;23.35;;;3.30;99.90;;;;;;5047428;28;20044;-72
2020/12/21 05:32:42;;;;;;;49.33;22.10;;;3.40;99.90;;;;;;5063338;28;20444;-73
2020/12/21 05:35:11;;;;;;;48.47;22.20;;;3.30;99.90;;;;;;5062011;28;20068;-72
2020/12/21 05:37:39;;;;;;;47.40;22.65;;;3.40;99.90;;;;;;5040103;28;20123;-72
2020/12/21 05:40:08;;;;;;;45.15;22.20;;;3.40;99.90;;;;;;5063251;28;20132;-72
2020/12/21 05:42:36;;;;;;;47.80;21.65;;;3.50;99.90;;;;;;5045918;28;20048;-72
2020/12/21 05:45:08;;;;;;;51.60;22.60;;;3.50;99.90;;;;;;5046230;28;20047;-72
2020/12/21 05:47:34;;;;;;;42.92;21.27;;;3.60;99.90;;;;;;5042860;28;20052;-72
2020/12/21 05:50:04;;;;;;;54.58;23.50;;;3.60;99.90;;;;;;5066068;28;20675;-72
2020/12/21 05:52:36;;;;;;;51.83;22.23;;;3.60;99.90;;;;;;5062668;28;20044;-72
2020/12/21 05:55:05;;;;;;;50.67;21.35;;;3.60;99.90;;;;;;5062824;28;20132;-72
2020/12/21 05:57:32;;;;;;;47.70;22.65;;;3.60;99.90;;;;;;5044119;28;20045;-72
2020/12/21 06:00:00;;;;;;;43.58;20.52;;;3.60;99.90;;;;;;5046102;28;20056;-74
2020/12/21 06:02:30;;;;;;;42.28;20.13;;;3.60;99.90;;;;;;5044499;28;20044;-72
2020/12/21 06:05:12;;;;;;;37.65;20.20;;;3.60;99.90;;;;;;5064088;28;20052;-72
2020/12/21 06:07:50;;;;;;;38.90;17.63;;;3.50;99.90;;;;;;5054426;28;20135;-72
2020/12/21 06:10:16;;;;;;;41.00;20.05;;;3.50;99.90;;;;;;5045624;28;20156;-72
2020/12/21 06:12:47;;;;;;;38.22;19.08;;;3.50;99.90;;;;;;5064277;28;20490;-72
2020/12/21 06:15:25;;;;;;;33.92;18.33;;;3.50;99.90;;;;;;5063446;28;20791;-72
2020/12/21 06:17:51;;;;;;;44.75;20.80;;;3.40;99.90;;;;;;5062503;28;20117;-72
2020/12/21 06:20:20;;;;;;;57.15;22.65;;;3.40;99.90;;;;;;5062855;28;20131;-72
2020/12/21 06:22:46;;;;;;;41.95;21.02;;;3.30;99.90;;;;;;5067123;28;20135;-73
2020/12/21 06:25:23;;;;;;;50.35;22.02;;;3.00;99.90;;;;;;5065920;28;20063;-72
2020/12/21 06:27:50;;;;;;;51.03;21.08;;;3.00;99.90;;;;;;5049253;28;20415;-72
2020/12/21 06:30:16;;;;;;;37.40;16.70;;;3.00;99.90;;;;;;5032751;28;20049;-72
2020/12/21 06:32:45;;;;;;;37.58;17.40;;;2.90;99.90;;;;;;5048369;28;20712;-72
2020/12/21 06:35:19;;;;;;;42.25;18.30;;;3.00;99.90;;;;;;5048485;28;20410;-72
2020/12/21 06:37:59;;;;;;;44.40;19.67;;;2.80;99.90;;;;;;5040478;28;20076;-72
2020/12/21 06:40:30;;;;;;;37.75;17.55;;;2.80;99.90;;;;;;5065204;28;20139;-73
2020/12/21 06:43:11;;;;;;;46.55;19.05;;;2.70;99.90;;;;;;5048351;28;20511;-72
2020/12/21 06:45:38;;;;;;;37.53;17.48;;;2.70;99.90;;;;;;5064586;28;20049;-73
2020/12/21 06:48:06;;;;;;;43.05;16.73;;;2.70;99.90;;;;;;5059378;28;20270;-73
2020/12/21 06:50:32;;;;;;;31.00;16.42;;;2.70;99.90;;;;;;5067367;28;20055;-72
2020/12/21 06:52:58;;;;;;;29.90;15.82;;;2.70;99.90;;;;;;5067293;28;20057;-72
2020/12/21 06:55:37;;;;;;;46.47;20.65;;;2.60;99.90;;;;;;5048603;28;20385;-72
2020/12/21 06:58:04;;;;;;;35.55;16.30;;;2.60;99.90;;;;;;5065439;28;20756;-72
2020/12/21 07:00:34;;;;;;;34.65;15.07;;;2.60;99.90;;;;;;5065192;28;20131;-73
2020/12/21 07:03:01;;;;;;;36.33;16.33;;;2.70;99.90;;;;;;5047975;28;20562;-72
2020/12/21 07:05:28;;;;;;;37.47;17.85;;;2.80;99.90;;;;;;5064435;28;20064;-71
2020/12/21 07:07:59;;;;;;;41.88;17.40;;;2.80;99.90;;;;;;5056796;28;20493;-73
2020/12/21 07:10:26;;;;;;;40.22;17.92;;;2.90;99.90;;;;;;5065771;28;20056;-73
2020/12/21 07:12:54;;;;;;;41.08;17.02;;;3.00;99.90;;;;;;5066768;28;20505;-73
2020/12/21 07:15:21;;;;;;;42.17;17.88;;;3.10;99.90;;;;;;5064179;28;20049;-73
2020/12/21 07:17:47;;;;;;;45.22;18.67;;;3.10;99.90;;;;;;5064297;28;20178;-73
2020/12/21 07:20:14;;;;;;;39.83;18.35;;;3.10;99.90;;;;;;5047492;28;20078;-73
2020/12/21 07:22:42;;;;;;;47.28;20.88;;;3.10;99.90;;;;;;5032620;28;20048;-73
2020/12/21 07:25:11;;;;;;;44.42;19.58;;;3.10;99.90;;;;;;5065472;28;20053;-73
2020/12/21 07:27:38;;;;;;;42.25;17.73;;;3.20;99.90;;;;;;5064455;28;20421;-73
2020/12/21 07:30:11;;;;;;;38.20;18.50;;;3.30;99.90;;;;;;5031532;28;20040;-73
2020/12/21 07:32:37;;;;;;;43.65;17.55;;;3.40;99.90;;;;;;5059422;28;20083;-73
2020/12/21 07:35:07;;;;;;;34.70;18.27;;;3.50;99.90;;;;;;5028141;28;20050;-73
2020/12/21 07:37:33;;;;;;;43.88;18.75;;;3.50;99.90;;;;;;5077184;28;20049;-72
2020/12/21 07:39:59;;;;;;;44.22;19.13;;;3.60;99.90;;;;;;5065128;28;20138;-73
2020/12/21 07:42:29;;;;;;;36.50;17.25;;;3.60;99.90;;;;;;5046916;28;20048;-73
2020/12/21 07:44:58;;;;;;;35.80;17.13;;;3.60;99.90;;;;;;5053854;28;20421;-73
2020/12/21 07:47:29;;;;;;;34.17;16.65;;;3.60;99.90;;;;;;5043323;28;20484;-72
2020/12/21 07:49:57;;;;;;;37.75;18.20;;;3.60;99.90;;;;;;5063727;28;20059;-72
2020/12/21 07:52:24;;;;;;;35.85;14.18;;;3.70;99.90;;;;;;5062984;28;20338;-72
2020/12/21 07:54:51;;;;;;;38.28;17.75;;;3.70;99.90;;;;;;5080350;28;20056;-72
2020/12/21 07:57:17;;;;;;;29.23;15.68;;;3.70;99.90;;;;;;5044211;28;20103;-72
2020/12/21 07:59:57;;;;;;;26.23;14.70;;;3.70;99.90;;;;;;5047270;28;20896;-72
2020/12/21 08:02:25;;;;;;;29.60;15.95;;;3.80;99.90;;;;;;5045607;28;20572;-72
2020/12/21 08:04:51;;;;;;;30.75;16.63;;;3.80;99.90;;;;;;5062172;28;20053;-72
2020/12/21 08:07:18;;;;;;;29.95;15.75;;;3.80;99.90;;;;;;5053740;28;20143;-73
2020/12/21 08:09:45;;;;;;;26.13;15.07;;;3.80;99.90;;;;;;5026891;28;20052;-72
2020/12/21 08:12:13;;;;;;;25.60;13.93;;;3.90;99.90;;;;;;5043280;28;20564;-72
2020/12/21 08:14:40;;;;;;;24.13;13.68;;;4.00;99.90;;;;;;5043854;28;20041;-72
2020/12/21 08:17:15;;;;;;;25.65;14.60;;;4.00;99.90;;;;;;5061841;28;20051;-72
2020/12/21 08:19:54;;;;;;;22.73;13.20;;;4.10;99.90;;;;;;5065127;28;20060;-72
2020/12/21 08:22:28;;;;;;;23.08;13.75;;;4.10;99.90;;;;;;5046087;28;20071;-72
2020/12/21 08:25:06;;;;;;;20.73;12.95;;;4.20;99.90;;;;;;5063735;28;20044;-72
2020/12/21 08:27:33;;;;;;;19.00;12.82;;;4.20;99.90;;;;;;5045746;28;20376;-72
2020/12/21 08:30:12;;;;;;;18.98;13.75;;;4.30;99.90;;;;;;5063723;28;20622;-71
2020/12/21 08:32:39;;;;;;;20.73;13.48;;;4.40;99.90;;;;;;5063308;28;20037;-72
2020/12/21 08:35:06;;;;;;;19.88;13.45;;;4.40;99.90;;;;;;5028501;28;20056;-72
2020/12/21 08:37:33;;;;;;;22.75;13.65;;;4.50;99.90;;;;;;5058269;28;20057;-72
2020/12/21 08:40:09;;;;;;;21.65;13.32;;;4.50;99.90;;;;;;5080752;28;20087;-71
2020/12/21 08:42:36;;;;;;;17.02;12.10;;;4.60;99.90;;;;;;5063100;28;20053;-73
2020/12/21 08:45:04;;;;;;;17.08;11.98;;;4.70;99.90;;;;;;5062944;28;20132;-73
2020/12/21 08:47:30;;;;;;;19.05;10.95;;;4.70;99.90;;;;;;5057376;28;20090;-73
2020/12/21 08:49:56;;;;;;;17.50;10.88;;;4.80;99.90;;;;;;5037124;28;20416;-72
2020/12/21 08:52:23;;;;;;;20.40;13.02;;;4.90;99.90;;;;;;5060239;28;20114;-73
2020/12/21 08:54:49;;;;;;;14.00;11.43;;;4.90;99.90;;;;;;5056466;28;20486;-72
2020/12/21 08:57:16;;;;;;;17.08;10.52;;;5.10;99.90;;;;;;5042227;28;20072;-73
2020/12/21 08:59:42;;;;;;;18.85;11.75;;;5.10;99.90;;;;;;5026207;28;20197;-73
2020/12/21 09:02:08;;;;;;;19.05;11.27;;;5.20;99.90;;;;;;5047627;28;20068;-73
2020/12/21 09:04:34;;;;;;;13.38;9.73;;;5.30;99.90;;;;;;5064325;28;20053;-72
2020/12/21 09:07:01;;;;;;;17.60;10.13;;;5.40;99.90;;;;;;5056550;28;20061;-73
2020/12/21 09:09:28;;;;;;;13.27;10.55;;;5.50;99.90;;;;;;5031807;28;20577;-73
2020/12/21 09:12:03;;;;;;;12.77;11.25;;;5.50;99.90;;;;;;5057312;28;20691;-75
2020/12/21 09:14:29;;;;;;;14.43;11.38;;;5.60;99.90;;;;;;5057006;28;20135;-75
2020/12/21 09:16:55;;;;;;;11.80;10.57;;;5.70;99.90;;;;;;5048147;28;20053;-74
2020/12/21 09:19:21;;;;;;;13.57;10.80;;;5.70;99.90;;;;;;5055005;28;20062;-75
2020/12/21 09:21:48;;;;;;;14.73;11.30;;;5.80;99.90;;;;;;5063499;28;20416;-73
2020/12/21 09:24:14;;;;;;;13.48;12.10;;;5.80;99.90;;;;;;5045834;28;20048;-73
2020/12/21 09:26:41;;;;;;;17.20;11.23;;;5.90;99.90;;;;;;5061724;28;20059;-73
2020/12/21 09:29:08;;;;;;;12.77;11.52;;;6.10;99.90;;;;;;5062451;28;20563;-74
2020/12/21 09:31:34;;;;;;;13.25;11.55;;;6.20;99.90;;;;;;5063118;28;20052;-74
2020/12/21 09:34:01;;;;;;;14.35;13.02;;;6.20;99.90;;;;;;5045021;28;20067;-73
2020/12/21 09:36:29;;;;;;;16.63;13.20;;;6.30;99.90;;;;;;5042906;28;20417;-74
2020/12/21 09:39:09;;;;;;;12.35;10.70;;;6.30;99.90;;;;;;5026240;28;20049;-74
2020/12/21 09:41:36;;;;;;;13.07;11.48;;;6.30;99.90;;;;;;5045105;28;20056;-73
2020/12/21 09:44:03;;;;;;;16.52;11.50;;;6.20;99.90;;;;;;5063084;28;20068;-73
2020/12/21 09:46:30;;;;;;;13.75;12.07;;;6.00;99.90;;;;;;5029087;28;20098;-74
2020/12/21 09:48:58;;;;;;;13.65;11.45;;;5.90;99.90;;;;;;5061963;28;20064;-76
2020/12/21 09:51:25;;;;;;;12.75;11.45;;;5.80;99.90;;;;;;5024506;28;20045;-75
2020/12/21 09:53:51;;;;;;;13.27;11.02;;;5.80;99.90;;;;;;5041339;28;20045;-76
2020/12/21 09:56:17;;;;;;;15.32;11.70;;;5.80;99.90;;;;;;5052743;28;20064;-76
2020/12/21 09:58:45;;;;;;;14.30;10.88;;;5.80;99.90;;;;;;5066866;28;20059;-75
2020/12/21 10:01:11;;;;;;;14.75;10.68;;;5.70;99.90;;;;;;5065691;28;20048;-76
2020/12/21 10:03:39;;;;;;;11.85;10.68;;;5.70;99.90;;;;;;5067281;28;20509;-76
2020/12/21 10:06:10;;;;;;;15.23;10.82;;;5.70;99.90;;;;;;5064784;28;20040;-76
2020/12/21 10:08:38;;;;;;;12.57;10.32;;;5.70;99.90;;;;;;5040987;28;20045;-76
2020/12/21 10:11:05;;;;;;;11.27;10.27;;;5.70;99.90;;;;;;5066454;28;20067;-75
2020/12/21 10:13:32;;;;;;;13.63;12.00;;;5.80;99.90;;;;;;5067039;28;20124;-77
2020/12/21 10:15:59;;;;;;;12.40;11.43;;;5.80;99.90;;;;;;5064546;28;20553;-76
2020/12/21 10:18:25;;;;;;;13.35;12.07;;;5.80;99.90;;;;;;5067595;28;20565;-76
2020/12/21 10:20:51;;;;;;;13.98;12.57;;;5.80;99.90;;;;;;5065977;28;20044;-76
2020/12/21 10:23:18;;;;;;;14.73;12.75;;;5.80;99.90;;;;;;5065926;28;20040;-75
2020/12/21 10:25:44;;;;;;;13.48;11.23;;;5.80;99.90;;;;;;5063537;28;20288;-76
2020/12/21 10:28:10;;;;;;;11.38;10.15;;;5.80;99.90;;;;;;5030727;28;20409;-75
2020/12/21 10:30:38;;;;;;;12.18;11.07;;;5.80;99.90;;;;;;5047721;28;20774;-75
2020/12/21 10:33:04;;;;;;;11.63;10.48;;;5.80;99.90;;;;;;5067514;28;20364;-74
2020/12/21 10:35:31;;;;;;;13.05;11.18;;;5.80;99.90;;;;;;5065078;28;20113;-74
2020/12/21 10:37:57;;;;;;;10.98;10.27;;;5.90;99.90;;;;;;5058471;28;20044;-75
2020/12/21 10:40:24;;;;;;;11.57;10.48;;;5.90;99.90;;;;;;5063501;28;20080;-74
2020/12/21 10:42:50;;;;;;;11.30;10.10;;;5.90;99.90;;;;;;5032061;28;20648;-76
2020/12/21 10:45:17;;;;;;;10.45;9.48;;;5.90;99.90;;;;;;5064814;28;20421;-76
2020/12/21 10:47:43;;;;;;;11.52;10.65;;;5.90;99.90;;;;;;5065205;28;20463;-76
2020/12/21 10:50:09;;;;;;;11.63;10.48;;;6.00;99.90;;;;;;5030974;28;20059;-76
2020/12/21 10:52:36;;;;;;;11.23;10.30;;;6.00;99.90;;;;;;5048257;28;20041;-75
2020/12/21 10:55:03;;;;;;;11.23;10.40;;;6.00;99.90;;;;;;5048492;28;20049;-75
2020/12/21 10:57:30;;;;;;;13.32;10.98;;;6.00;99.90;;;;;;5041935;28;20071;-74
2020/12/21 10:59:56;;;;;;;11.77;10.88;;;6.00;99.90;;;;;;5047892;28;20348;-75
2020/12/21 11:02:22;;;;;;;12.93;11.82;;;6.10;99.90;;;;;;5063435;28;20072;-76
2020/12/21 11:04:49;;;;;;;12.43;11.43;;;6.10;99.90;;;;;;5064350;28;20442;-76
2020/12/21 11:07:15;;;;;;;14.85;11.80;;;6.20;99.90;;;;;;5054687;28;20476;-76
2020/12/21 11:09:41;;;;;;;12.63;11.63;;;6.30;99.90;;;;;;5031656;28;20516;-76
2020/12/21 11:12:08;;;;;;;13.82;12.82;;;6.30;99.90;;;;;;5030731;28;20045;-75
2020/12/21 11:14:34;;;;;;;13.50;12.23;;;6.30;99.90;;;;;;5064503;28;20064;-75
2020/12/21 11:17:00;;;;;;;13.32;12.00;;;6.30;99.90;;;;;;5062715;28;20131;-75
2020/12/21 11:19:27;;;;;;;12.75;11.52;;;6.40;99.90;;;;;;5031438;28;20052;-76
2020/12/21 11:21:53;;;;;;;24.00;12.55;;;6.40;99.90;;;;;;5063488;28;20147;-75
2020/12/21 11:24:19;;;;;;;13.82;12.68;;;6.40;99.90;;;;;;5066158;28;20048;-76
2020/12/21 11:26:52;;;;;;;13.75;12.60;;;6.40;99.90;;;;;;5062432;28;20161;-77
2020/12/21 11:29:19;;;;;;;15.10;13.80;;;6.50;99.90;;;;;;5063817;28;20074;-75
2020/12/21 11:31:45;;;;;;;14.23;12.77;;;6.50;99.90;;;;;;5047214;28;20162;-76
2020/12/21 11:34:12;;;;;;;14.60;13.43;;;6.50;99.90;;;;;;5065598;28;20124;-76
2020/12/21 11:36:41;;;;;;;14.45;13.27;;;6.50;99.90;;;;;;5060698;28;20586;-76
2020/12/21 11:39:08;;;;;;;15.57;13.60;;;6.50;99.90;;;;;;5059557;28;20056;-75
2020/12/21 11:41:34;;;;;;;15.43;14.20;;;6.60;99.90;;;;;;5064002;28;20049;-75
2020/12/21 11:44:00;;;;;;;16.45;14.95;;;6.60;99.90;;;;;;5063994;28;20048;-76
2020/12/21 11:46:35;;;;;;;16.10;14.80;;;6.70;99.90;;;;;;5064758;28;20056;-75
2020/12/21 11:49:02;;;;;;;13.85;12.52;;;6.70;99.90;;;;;;5064302;28;20063;-75
2020/12/21 11:51:29;;;;;;;16.02;14.68;;;6.70;99.90;;;;;;5046432;28;20045;-76
2020/12/21 11:53:55;;;;;;;18.55;15.00;;;6.70;99.90;;;;;;5065338;28;20059;-76
2020/12/21 11:56:22;;;;;;;17.25;15.52;;;6.80;99.90;;;;;;5045633;28;20421;-76
2020/12/21 11:58:49;;;;;;;17.98;15.65;;;6.80;99.90;;;;;;5063945;28;20048;-74
2020/12/21 12:01:16;;;;;;;20.48;13.85;;;6.80;99.90;;;;;;5062461;28;20049;-77
2020/12/21 12:03:43;;;;;;;16.73;14.90;;;6.90;99.90;;;;;;5046594;28;20048;-76
2020/12/21 12:06:09;;;;;;;15.52;14.10;;;6.90;99.90;;;;;;5063883;28;20049;-76
2020/12/21 12:08:36;;;;;;;16.60;14.63;;;6.90;99.90;;;;;;5054763;28;20068;-76
2020/12/21 12:11:03;;;;;;;14.48;13.35;;;6.90;99.90;;;;;;5079665;28;20048;-76
2020/12/21 12:13:30;;;;;;;16.30;14.77;;;6.90;99.90;;;;;;5047040;28;20094;-76
2020/12/21 12:15:56;;;;;;;16.00;14.52;;;7.00;99.90;;;;;;5064090;28;20056;-77
2020/12/21 12:18:22;;;;;;;16.73;15.15;;;7.00;99.90;;;;;;5061666;28;20052;-78
2020/12/21 12:20:48;;;;;;;16.17;14.60;;;7.00;99.90;;;;;;5055049;28;20550;-76
2020/12/21 12:23:15;;;;;;;14.88;13.68;;;7.00;99.90;;;;;;5056365;28;20140;-77
2020/12/21 12:25:41;;;;;;;15.85;14.30;;;7.00;99.90;;;;;;5048200;28;20630;-78
2020/12/21 12:28:07;;;;;;;15.20;13.63;;;7.00;99.90;;;;;;5028379;28;20045;-76
2020/12/21 12:30:34;;;;;;;15.43;13.93;;;7.00;99.90;;;;;;5064030;28;20095;-76
2020/12/21 12:33:00;;;;;;;15.18;13.65;;;7.00;99.90;;;;;;5063893;28;20060;-76
2020/12/21 12:35:27;;;;;;;15.20;13.77;;;7.00;99.90;;;;;;5062833;28;20066;-75
2020/12/21 12:37:53;;;;;;;15.38;13.23;;;7.10;99.90;;;;;;5039816;28;20155;-75